Time;durP1;ratioP1;P1;durP2;ratioP2;P2;SDS_P1;SDS_P2;PMS_P1;PMS_P2;Temp;Humidity;BMP_temperature;BMP_pressure;BME280_temperature;BME280_humidity;BME280_pressure;Samples;Min_cycle;Max_cycle;Signal;HPM_P1;HPM_P2
2021/04/02 00:01:14;;;;;;;1.50;1.20;;;7.70;95.10;;;;;;5019201;28;20468;-79
2021/04/02 00:03:40;;;;;;;1.50;1.20;;;7.70;94.60;;;;;;5035454;28;20510;-78
2021/04/02 00:06:32;;;;;;;1.50;1.20;;;7.70;94.40;;;;;;5025390;28;20482;-78
2021/04/02 00:09:02;;;;;;;1.53;1.20;;;7.70;94.70;;;;;;5026271;28;20598;-78
2021/04/02 00:11:32;;;;;;;1.53;1.27;;;7.60;94.60;;;;;;5023073;28;20575;-77
2021/04/02 00:14:02;;;;;;;1.50;1.20;;;7.60;95.00;;;;;;5034747;28;20463;-77
2021/04/02 00:16:29;;;;;;;1.50;1.20;;;7.60;95.30;;;;;;5020637;28;20484;-78
2021/04/02 00:18:55;;;;;;;1.53;1.20;;;7.60;95.10;;;;;;5032473;28;20458;-77
2021/04/02 00:21:22;;;;;;;1.50;1.20;;;7.60;95.40;;;;;;5024135;28;20573;-78
2021/04/02 00:26:38;;;;;;;1.50;1.30;;;7.60;95.10;;;;;;5015375;28;20580;-77
2021/04/02 00:29:11;;;;;;;1.50;1.20;;;7.60;94.80;;;;;;5033928;28;20473;-76
2021/04/02 00:31:38;;;;;;;1.57;1.30;;;7.60;94.40;;;;;;5025479;28;20909;-78
2021/04/02 00:34:10;;;;;;;1.50;1.30;;;7.50;94.60;;;;;;5030394;28;20558;-77
2021/04/02 00:36:44;;;;;;;1.53;1.20;;;7.60;94.90;;;;;;5021813;28;20487;-79
2021/04/02 00:39:11;;;;;;;1.50;1.20;;;7.60;94.80;;;;;;5031395;28;20462;-78
2021/04/02 00:41:39;;;;;;;1.53;1.20;;;7.60;94.70;;;;;;5022844;28;20505;-78
2021/04/02 00:44:05;;;;;;;1.50;1.20;;;7.60;95.00;;;;;;5030701;28;20542;-78
2021/04/02 00:46:41;;;;;;;1.50;1.20;;;7.70;95.10;;;;;;5021683;28;21001;-77
2021/04/02 00:49:07;;;;;;;1.50;1.20;;;7.70;94.80;;;;;;5030608;28;20463;-78
2021/04/02 00:51:37;;;;;;;1.53;1.30;;;7.70;95.10;;;;;;5023723;28;20474;-78
2021/04/02 00:54:10;;;;;;;1.53;1.20;;;7.80;95.10;;;;;;5030895;28;20460;-77
2021/04/02 00:59:25;;;;;;;1.57;1.20;;;7.70;94.70;;;;;;5029772;28;20480;-78
2021/04/02 01:01:54;;;;;;;1.50;1.20;;;7.70;94.40;;;;;;5015859;28;20479;-77
2021/04/02 01:04:27;;;;;;;1.50;1.20;;;7.70;94.80;;;;;;5031151;28;20463;-78
2021/04/02 01:07:26;;;;;;;1.50;1.20;;;7.60;94.80;;;;;;5017446;28;20759;-78
2021/04/02 01:09:52;;;;;;;1.50;1.20;;;7.60;94.90;;;;;;4946641;28;20522;-79
2021/04/02 01:15:37;;;;;;;1.50;1.20;;;7.50;94.70;;;;;;5021894;28;20921;-77
2021/04/02 01:18:16;;;;;;;1.53;1.20;;;7.50;94.80;;;;;;5016691;28;20842;-78
2021/04/02 01:20:54;;;;;;;1.57;1.30;;;7.40;95.10;;;;;;5031846;28;20487;-78
2021/04/02 01:26:43;;;;;;;1.50;1.20;;;7.30;94.70;;;;;;5012981;28;21004;-79
2021/04/02 01:29:14;;;;;;;1.50;1.20;;;7.30;95.40;;;;;;5035473;28;20467;-77
2021/04/02 01:31:48;;;;;;;1.50;1.20;;;7.20;95.00;;;;;;5006794;28;20510;-79
2021/04/02 01:34:29;;;;;;;1.60;1.30;;;7.20;95.30;;;;;;5024639;28;21058;-78
2021/04/02 01:37:14;;;;;;;1.50;1.20;;;7.10;95.70;;;;;;5015600;28;20996;-78
2021/04/02 01:39:45;;;;;;;1.53;1.20;;;7.10;95.80;;;;;;5032531;28;20821;-78
2021/04/02 01:42:36;;;;;;;;;;;;;;;;;;;;;
2021/04/02 01:45:07;;;;;;;1.50;1.20;;;7.10;96.90;;;;;;5019066;28;20564;-77
2021/04/02 01:47:41;;;;;;;1.53;1.30;;;7.20;96.60;;;;;;5002141;28;20486;-77
2021/04/02 01:50:13;;;;;;;1.50;1.30;;;7.20;96.90;;;;;;5032107;28;20558;-79
2021/04/02 01:52:44;;;;;;;1.53;1.30;;;7.30;97.00;;;;;;5019708;28;20544;-78
2021/04/02 01:55:16;;;;;;;1.50;1.20;;;7.30;96.70;;;;;;5027852;28;20463;-78
2021/04/02 01:57:45;;;;;;;1.50;1.20;;;7.30;97.00;;;;;;5023597;28;20512;-78
2021/04/02 02:00:23;;;;;;;1.50;1.20;;;7.30;96.70;;;;;;5034138;28;20455;-77
2021/04/02 02:02:52;;;;;;;1.53;1.20;;;7.40;96.80;;;;;;5015519;28;20479;-77
2021/04/02 02:05:39;;;;;;;1.50;1.30;;;7.40;96.70;;;;;;5031372;28;20467;-78
2021/04/02 02:08:06;;;;;;;1.50;1.20;;;7.40;96.80;;;;;;5017624;28;20887;-78
2021/04/02 02:10:34;;;;;;;1.50;1.13;;;7.50;96.70;;;;;;5033359;28;20490;-77
2021/04/02 02:15:48;;;;;;;1.50;1.20;;;7.50;96.20;;;;;;5034351;28;20842;-78
2021/04/02 02:18:21;;;;;;;1.60;1.30;;;7.50;96.30;;;;;;5002198;28;20557;-80
2021/04/02 02:20:58;;;;;;;1.50;1.20;;;7.60;96.00;;;;;;5021934;28;20966;-78
2021/04/02 02:23:41;;;;;;;1.50;1.30;;;7.60;96.20;;;;;;5022029;28;20883;-79
2021/04/02 02:26:10;;;;;;;1.50;1.20;;;7.60;96.20;;;;;;5017893;28;20479;-79
2021/04/02 02:28:37;;;;;;;1.50;1.20;;;7.60;96.00;;;;;;5025825;28;20463;-76
2021/04/02 02:31:13;;;;;;;1.53;1.20;;;7.70;96.00;;;;;;5014727;28;20478;-78
2021/04/02 02:33:49;;;;;;;1.50;1.30;;;7.70;95.60;;;;;;5029022;28;20578;-78
2021/04/02 02:36:18;;;;;;;1.50;1.20;;;7.70;95.50;;;;;;5019672;28;20512;-77
2021/04/02 02:41:46;;;;;;;1.57;1.30;;;7.70;95.50;;;;;;5005401;28;20482;-78
2021/04/02 02:44:15;;;;;;;1.50;1.20;;;7.70;95.60;;;;;;5026953;28;20459;-77
2021/04/02 02:46:50;;;;;;;1.50;1.30;;;7.70;95.60;;;;;;5021349;28;20485;-77
2021/04/02 02:49:34;;;;;;;1.50;1.10;;;7.70;95.60;;;;;;5031037;28;20479;-78
2021/04/02 02:52:09;;;;;;;1.50;1.20;;;7.80;95.30;;;;;;5016514;28;20487;-78
2021/04/02 02:54:49;;;;;;;1.53;1.20;;;7.80;95.60;;;;;;5026427;28;20478;-78
2021/04/02 02:57:18;;;;;;;1.50;1.20;;;7.80;95.50;;;;;;5024801;28;20474;-77
2021/04/02 03:00:00;;;;;;;1.50;1.20;;;7.80;95.60;;;;;;5032395;28;20474;-78
2021/04/02 03:02:29;;;;;;;1.50;1.20;;;7.80;95.30;;;;;;5013803;28;20479;-79
2021/04/02 03:05:03;;;;;;;1.50;1.20;;;7.80;95.30;;;;;;5031636;28;20463;-78
2021/04/02 03:07:33;;;;;;;1.50;1.20;;;7.80;95.40;;;;;;5021964;28;20505;-77
2021/04/02 03:10:14;;;;;;;1.50;1.20;;;7.80;95.20;;;;;;5026010;28;20530;-78
2021/04/02 03:12:42;;;;;;;1.60;1.40;;;7.80;95.30;;;;;;5022351;28;20854;-77
2021/04/02 03:15:17;;;;;;;1.53;1.30;;;7.80;94.80;;;;;;5032768;28;20459;-77
2021/04/02 03:17:52;;;;;;;1.50;1.20;;;7.80;95.30;;;;;;5018236;28;20638;-78
2021/04/02 03:20:20;;;;;;;1.53;1.20;;;7.80;95.10;;;;;;5031721;28;20458;-77
2021/04/02 03:22:58;;;;;;;1.50;1.20;;;7.80;94.70;;;;;;5022205;28;21001;-78
2021/04/02 03:29:05;;;;;;;1.50;1.20;;;7.60;95.30;;;;;;4883058;28;20572;-79
2021/04/02 03:31:53;;;;;;;1.50;1.20;;;7.50;95.40;;;;;;4950320;28;20482;-79
2021/04/02 03:34:40;;;;;;;1.50;1.20;;;7.40;95.70;;;;;;5026433;28;21024;-77
2021/04/02 03:37:11;;;;;;;1.50;1.20;;;7.40;95.60;;;;;;5017174;28;20490;-77
2021/04/02 03:39:54;;;;;;;1.50;1.27;;;7.40;95.80;;;;;;5036267;28;20467;-79
2021/04/02 03:42:35;;;;;;;1.50;1.30;;;7.30;95.90;;;;;;5019093;28;20528;-79
2021/04/02 03:45:33;;;;;;;1.57;1.20;;;7.30;96.50;;;;;;5034526;28;20485;-78
2021/04/02 03:48:20;;;;;;;1.50;1.30;;;7.30;96.60;;;;;;5021162;28;20544;-78
2021/04/02 03:51:03;;;;;;;1.57;1.40;;;7.20;96.70;;;;;;5024476;28;20478;-79
2021/04/02 03:53:33;;;;;;;1.50;1.20;;;7.20;96.90;;;;;;5033796;28;20471;-79
2021/04/02 03:56:03;;;;;;;1.50;1.20;;;7.20;97.20;;;;;;5026032;28;20554;-79
2021/04/02 03:58:46;;;;;;;1.50;1.20;;;7.10;96.90;;;;;;5033762;28;20459;-78
2021/04/02 04:01:38;;;;;;;1.50;1.20;;;7.10;97.30;;;;;;5017059;28;20554;-79
2021/04/02 04:04:33;;;;;;;1.50;1.20;;;7.10;97.60;;;;;;5028963;28;20558;-78
2021/04/02 04:07:12;;;;;;;1.50;1.20;;;7.10;97.30;;;;;;4987751;28;20476;-78
2021/04/02 04:12:44;;;;;;;1.50;1.20;;;6.90;97.40;;;;;;5001514;28;20545;-79
2021/04/02 04:15:18;;;;;;;1.60;1.40;;;6.90;97.80;;;;;;5034036;28;20465;-79
2021/04/02 04:18:02;;;;;;;1.50;1.30;;;6.80;97.50;;;;;;5022179;28;20474;-77
2021/04/02 04:24:26;;;;;;;1.50;1.30;;;6.80;97.90;;;;;;5008662;28;20462;-78
2021/04/02 04:27:25;;;;;;;1.50;1.30;;;6.70;98.20;;;;;;5022180;28;20867;-79
2021/04/02 04:29:59;;;;;;;1.50;1.30;;;6.70;98.20;;;;;;5035380;28;20463;-78
2021/04/02 04:32:35;;;;;;;1.50;1.30;;;6.60;98.20;;;;;;5026699;28;20480;-79
2021/04/02 04:37:56;;;;;;;2.37;2.17;;;6.60;98.20;;;;;;5009323;28;20475;-78
2021/04/02 04:40:31;;;;;;;1.60;1.30;;;6.70;98.20;;;;;;5032522;28;20492;-79
2021/04/02 04:45:49;;;;;;;1.53;1.30;;;6.70;98.20;;;;;;5029606;28;20459;-79
2021/04/02 04:51:41;;;;;;;1.57;1.30;;;6.60;98.20;;;;;;5021695;28;20537;-80
2021/04/02 04:54:36;;;;;;;1.50;1.20;;;6.60;98.20;;;;;;5031511;28;21041;-77
2021/04/02 04:57:15;;;;;;;1.50;1.20;;;6.60;98.20;;;;;;5013846;28;21048;-79
2021/04/02 05:00:00;;;;;;;1.50;1.30;;;6.50;98.20;;;;;;5035026;28;20455;-80
2021/04/02 05:02:41;;;;;;;1.57;1.27;;;6.50;98.20;;;;;;5015825;28;20566;-79
2021/04/02 05:05:40;;;;;;;1.50;1.20;;;6.50;98.20;;;;;;5031164;28;20575;-78
2021/04/02 05:11:35;;;;;;;1.57;1.30;;;6.50;98.20;;;;;;5007155;28;20526;-80
2021/04/02 05:14:36;;;;;;;1.50;1.20;;;6.50;98.20;;;;;;4994227;28;20542;-79
2021/04/02 05:17:34;;;;;;;1.57;1.30;;;6.50;98.20;;;;;;5021062;28;20475;-79
2021/04/02 05:23:00;;;;;;;1.50;1.20;;;6.50;98.20;;;;;;5023038;28;21078;-79
2021/04/02 05:25:45;;;;;;;1.50;1.23;;;6.50;98.20;;;;;;5032772;28;20513;-78
2021/04/02 05:28:32;;;;;;;;;;;;;;;;;;;;;
2021/04/02 05:31:01;;;;;;;1.53;1.30;;;6.60;98.20;;;;;;5057287;22;20502;-78
2021/04/02 05:34:01;;;;;;;1.50;1.20;;;6.60;98.20;;;;;;5011607;28;20464;-78
2021/04/02 05:36:30;;;;;;;1.50;1.30;;;6.60;98.20;;;;;;4976082;28;20477;-77
2021/04/02 05:39:31;;;;;;;1.60;1.40;;;6.60;98.20;;;;;;5006564;28;20458;-79
2021/04/02 05:42:34;;;;;;;1.50;1.20;;;6.60;98.20;;;;;;5002375;28;20491;-79
2021/04/02 05:45:36;;;;;;;1.50;1.30;;;6.60;98.20;;;;;;4989905;28;20472;-78
2021/04/02 05:54:25;;;;;;;1.60;1.30;;;6.80;98.20;;;;;;5019683;28;20532;-79
2021/04/02 05:56:59;;;;;;;1.60;1.50;;;6.80;98.20;;;;;;5010596;28;20496;-78
2021/04/02 05:59:48;;;;;;;1.50;1.20;;;6.80;98.20;;;;;;5025449;28;20466;-77
2021/04/02 06:02:43;;;;;;;1.60;1.30;;;6.90;98.20;;;;;;5004851;28;20478;-79
2021/04/02 06:05:27;;;;;;;1.50;1.10;;;6.90;98.20;;;;;;5018453;28;20461;-77
2021/04/02 06:08:04;;;;;;;1.60;1.30;;;6.90;98.20;;;;;;5008264;28;20479;-78
2021/04/02 06:10:40;;;;;;;1.50;1.20;;;6.90;98.20;;;;;;4977751;28;20530;-79
2021/04/02 06:15:56;;;;;;;1.53;1.20;;;7.00;98.10;;;;;;5011056;28;21152;-77
2021/04/02 06:18:27;;;;;;;1.50;1.23;;;7.00;98.00;;;;;;5021962;28;20473;-78
2021/04/02 06:21:21;;;;;;;1.50;1.30;;;7.00;97.80;;;;;;5006486;28;20490;-78
2021/04/02 06:23:57;;;;;;;1.50;1.20;;;7.00;97.90;;;;;;5005912;28;20531;-79
2021/04/02 06:26:28;;;;;;;1.50;1.20;;;7.00;97.80;;;;;;5007776;28;20511;-78
2021/04/02 06:29:21;;;;;;;;;;;;;;;;;;;;;
2021/04/02 06:31:53;;;;;;;1.50;1.30;;;7.10;97.50;;;;;;5009129;28;20484;-77
2021/04/02 06:34:41;;;;;;;1.53;1.30;;;7.10;97.50;;;;;;5018177;28;20499;-78
2021/04/02 06:37:16;;;;;;;1.60;1.40;;;7.10;97.50;;;;;;5010780;28;20467;-77
2021/04/02 06:40:09;;;;;;;1.50;1.27;;;7.10;97.60;;;;;;5018338;28;20472;-79
2021/04/02 06:43:07;;;;;;;1.57;1.30;;;7.20;97.50;;;;;;5018430;28;20576;-78
2021/04/02 06:45:43;;;;;;;1.50;1.20;;;7.30;97.30;;;;;;4943699;29;20528;-76
2021/04/02 06:48:32;;;;;;;1.50;1.20;;;7.30;97.20;;;;;;4926478;29;20503;-78
2021/04/02 06:51:26;;;;;;;1.60;1.30;;;7.30;97.30;;;;;;4927930;28;20525;-78
2021/04/02 06:54:14;;;;;;;;;;;;;;;;;;;;;
2021/04/02 06:56:55;;;;;;;1.60;1.20;;;7.40;97.10;;;;;;4999779;28;20535;-79
2021/04/02 06:59:43;;;;;;;1.50;1.20;;;7.50;97.30;;;;;;5017447;28;20547;-78
2021/04/02 07:02:12;;;;;;;1.50;1.20;;;7.60;97.10;;;;;;5006780;28;20860;-77
2021/04/02 07:04:51;;;;;;;1.57;1.30;;;7.70;96.70;;;;;;5012013;28;20461;-76
2021/04/02 07:07:39;;;;;;;1.50;1.20;;;7.80;96.60;;;;;;5001192;28;20471;-78
2021/04/02 07:13:39;;;;;;;1.50;1.20;;;8.10;95.60;;;;;;5020047;22;20483;-77
2021/04/02 07:16:28;;;;;;;1.50;1.10;;;8.20;95.20;;;;;;4959675;28;20540;-78
2021/04/02 07:19:21;;;;;;;1.60;1.20;;;8.20;95.00;;;;;;5015698;28;20498;-78
2021/04/02 07:25:34;;;;;;;1.50;1.20;;;8.20;94.70;;;;;;5027059;28;20464;-78
2021/04/02 07:28:49;;;;;;;2.00;1.80;;;8.30;94.80;;;;;;5011788;28;20475;-78
2021/04/02 07:34:14;;;;;;;1.53;1.10;;;8.60;95.20;;;;;;5020489;28;20473;-77
2021/04/02 07:37:02;;;;;;;1.50;1.10;;;8.70;94.00;;;;;;5017370;28;20503;-78
2021/04/02 07:39:48;;;;;;;1.50;1.10;;;8.80;93.00;;;;;;5030008;28;20463;-79
2021/04/02 07:42:20;;;;;;;1.50;1.10;;;8.80;92.60;;;;;;5016346;28;20533;-77
2021/04/02 07:48:08;;;;;;;;;;;;;;;;;;;;;
2021/04/02 07:50:54;;;;;;;1.50;1.10;;;8.50;93.30;;;;;;5033070;28;21148;-79
2021/04/02 07:53:50;;;;;;;1.50;1.10;;;8.50;93.70;;;;;;5001136;28;20463;-78
2021/04/02 07:56:46;;;;;;;1.50;1.10;;;8.40;93.30;;;;;;5019960;28;20475;-77
2021/04/02 07:59:15;;;;;;;1.50;1.10;;;8.40;93.40;;;;;;4993953;28;21206;-78
2021/04/02 08:01:57;;;;;;;1.50;1.10;;;8.30;93.30;;;;;;5010800;28;20487;-77
2021/04/02 08:04:45;;;;;;;1.50;1.10;;;8.40;93.60;;;;;;5025021;28;20467;-79
2021/04/02 08:07:39;;;;;;;6.03;1.30;;;8.40;94.00;;;;;;5005871;28;20475;-77
2021/04/02 08:13:29;;;;;;;1.50;1.10;;;8.40;93.10;;;;;;4961794;28;20498;-78
2021/04/02 08:16:47;;;;;;;1.50;1.10;;;8.40;93.00;;;;;;4952662;28;20513;-77
2021/04/02 08:19:27;;;;;;;1.50;1.10;;;8.60;93.30;;;;;;4964502;28;20669;-79
2021/04/02 08:22:09;;;;;;;1.60;1.20;;;8.80;92.40;;;;;;4982204;28;20546;-77
2021/04/02 08:27:55;;;;;;;1.50;1.20;;;9.10;91.60;;;;;;5013681;28;20493;-79
2021/04/02 08:31:04;;;;;;;1.53;1.10;;;9.20;91.30;;;;;;5033857;28;20467;-77
2021/04/02 08:43:17;;;;;;;1.50;1.10;;;9.30;91.60;;;;;;5150585;22;20632;-77
2021/04/02 08:45:55;;;;;;;1.50;1.10;;;9.40;91.20;;;;;;5027620;28;20481;-78
2021/04/02 08:48:23;;;;;;;1.57;1.17;;;9.40;91.00;;;;;;5001031;28;20733;-78
2021/04/02 08:51:20;;;;;;;1.50;1.10;;;9.40;90.80;;;;;;5019457;28;20484;-79
2021/04/02 08:54:30;;;;;;;1.53;1.10;;;9.50;91.10;;;;;;5010250;28;20472;-79
2021/04/02 09:00:57;;;;;;;1.50;1.17;;;9.30;91.30;;;;;;5006798;28;20547;-78
2021/04/02 09:03:25;;;;;;;1.50;1.00;;;9.40;90.70;;;;;;4980981;28;20484;-79
2021/04/02 09:06:36;;;;;;;1.57;1.20;;;9.40;90.30;;;;;;5001879;28;20829;-80
2021/04/02 09:09:22;;;;;;;1.50;1.10;;;9.50;90.30;;;;;;4909571;29;20472;-79
2021/04/02 09:20:38;;;;;;;1.60;1.20;;;9.90;89.40;;;;;;4992799;28;20472;-76
2021/04/02 09:23:05;;;;;;;1.50;1.10;;;10.00;89.00;;;;;;4981527;28;20500;-79
2021/04/02 09:26:28;;;;;;;1.50;1.10;;;10.10;89.30;;;;;;4967798;28;20458;-76
2021/04/02 09:29:16;;;;;;;1.50;1.10;;;10.20;88.40;;;;;;4884583;29;20485;-77
2021/04/02 09:31:50;;;;;;;1.50;1.10;;;10.30;88.50;;;;;;4885623;29;20520;-78
2021/04/02 09:34:19;;;;;;;1.57;1.10;;;10.40;88.20;;;;;;4956204;28;20908;-75
2021/04/02 09:36:47;;;;;;;1.50;1.00;;;10.50;88.10;;;;;;4980613;28;20600;-76
2021/04/02 09:39:15;;;;;;;1.50;1.00;;;10.60;87.80;;;;;;4992877;28;20481;-76
2021/04/02 09:42:00;;;;;;;1.53;1.10;;;10.70;87.50;;;;;;4988039;28;20540;-79
2021/04/02 09:44:32;;;;;;;1.50;1.00;;;10.60;87.00;;;;;;4994098;28;20467;-79
2021/04/02 09:47:09;;;;;;;1.50;1.03;;;10.50;87.00;;;;;;4987803;28;20487;-79
2021/04/02 09:49:37;;;;;;;1.53;1.10;;;10.40;87.60;;;;;;4995802;28;20461;-79
2021/04/02 09:52:05;;;;;;;1.50;1.00;;;10.40;87.30;;;;;;4985054;28;20481;-79
2021/04/02 09:54:33;;;;;;;1.50;1.10;;;10.30;87.50;;;;;;4990494;28;20465;-79
2021/04/02 09:57:49;;;;;;;;;;;;;;;;;;;;;
2021/04/02 10:00:43;;;;;;;1.50;1.00;;;10.40;88.30;;;;;;4960193;28;20472;-79
2021/04/02 10:03:15;;;;;;;1.50;1.10;;;10.50;87.10;;;;;;4927314;28;20492;-79
2021/04/02 10:05:45;;;;;;;1.50;1.00;;;10.40;86.70;;;;;;4995489;28;20462;-80
2021/04/02 10:08:13;;;;;;;1.50;1.10;;;10.30;86.70;;;;;;4967893;28;20487;-79
2021/04/02 10:10:42;;;;;;;1.50;1.10;;;10.30;87.10;;;;;;4992532;28;20535;-81
2021/04/02 10:13:09;;;;;;;1.50;1.10;;;10.40;86.60;;;;;;4983456;28;20483;-80
2021/04/02 10:15:35;;;;;;;1.77;1.43;;;10.40;86.70;;;;;;4996416;28;20579;-80
2021/04/02 10:18:02;;;;;;;1.50;1.10;;;10.50;86.60;;;;;;4983124;28;20546;-80
2021/04/02 10:20:29;;;;;;;1.50;1.10;;;10.30;85.50;;;;;;4990773;28;20557;-81
2021/04/02 10:23:12;;;;;;;1.50;1.00;;;10.30;85.80;;;;;;4972773;28;20612;-79
2021/04/02 10:25:55;;;;;;;1.50;1.10;;;10.10;86.20;;;;;;4995811;28;20469;-80
2021/04/02 10:28:27;;;;;;;1.50;1.00;;;10.10;86.30;;;;;;4962973;28;20473;-79
2021/04/02 10:30:54;;;;;;;1.50;1.00;;;10.00;86.00;;;;;;4981195;28;20500;-80
2021/04/02 10:33:23;;;;;;;1.50;1.00;;;10.10;86.40;;;;;;4988558;28;21193;-79
2021/04/02 10:35:51;;;;;;;1.50;1.00;;;10.00;86.60;;;;;;4983478;28;20473;-80
2021/04/02 10:38:21;;;;;;;1.50;1.10;;;9.90;87.50;;;;;;4985075;28;20477;-79
2021/04/02 10:40:50;;;;;;;1.50;1.10;;;9.90;88.00;;;;;;4981599;28;20498;-81
2021/04/02 10:43:17;;;;;;;1.50;1.10;;;9.80;88.20;;;;;;4992421;28;20535;-79
2021/04/02 10:45:53;;;;;;;1.50;1.00;;;9.80;88.00;;;;;;4994116;28;20495;-77
2021/04/02 10:48:20;;;;;;;1.50;1.00;;;9.70;87.80;;;;;;4963330;28;21145;-78
2021/04/02 10:50:59;;;;;;;1.50;1.00;;;9.70;87.90;;;;;;4992422;28;21261;-79
2021/04/02 10:53:29;;;;;;;1.60;1.20;;;9.70;88.00;;;;;;4995011;28;20500;-79
2021/04/02 10:56:03;;;;;;;1.50;1.10;;;9.60;88.50;;;;;;4984829;28;20568;-79
2021/04/02 10:58:36;;;;;;;1.50;1.10;;;9.60;88.30;;;;;;4987879;28;20985;-80
2021/04/02 11:01:04;;;;;;;1.50;1.00;;;9.70;88.70;;;;;;4981833;28;20492;-79
2021/04/02 11:03:32;;;;;;;1.50;1.10;;;9.70;88.50;;;;;;4990580;28;20497;-81
2021/04/02 11:06:02;;;;;;;1.50;1.00;;;9.60;88.40;;;;;;4984864;28;20473;-80
2021/04/02 11:08:34;;;;;;;1.50;1.10;;;9.60;88.50;;;;;;4994988;28;20473;-79
2021/04/02 11:11:00;;;;;;;1.50;1.00;;;9.60;88.70;;;;;;4984556;28;20508;-79
2021/04/02 11:13:30;;;;;;;1.50;1.10;;;9.60;88.90;;;;;;4988413;28;21170;-79
2021/04/02 11:15:59;;;;;;;1.50;1.10;;;9.60;88.90;;;;;;4982872;28;20477;-80
2021/04/02 11:18:29;;;;;;;1.50;1.10;;;9.60;88.80;;;;;;4991754;28;20637;-79
2021/04/02 11:21:00;;;;;;;1.50;1.10;;;9.50;88.90;;;;;;4982724;28;20488;-80
2021/04/02 11:23:28;;;;;;;1.50;1.10;;;9.50;88.70;;;;;;4993046;28;20823;-79
2021/04/02 11:25:55;;;;;;;1.50;1.10;;;9.50;89.20;;;;;;4980285;28;20476;-79
2021/04/02 11:28:22;;;;;;;1.50;1.03;;;9.50;89.20;;;;;;4993835;28;20457;-81
2021/04/02 11:30:55;;;;;;;1.50;1.10;;;9.60;89.20;;;;;;4981844;28;20519;-80
2021/04/02 11:33:25;;;;;;;1.50;1.03;;;9.60;88.90;;;;;;4988364;28;20489;-80
2021/04/02 11:35:59;;;;;;;1.50;1.10;;;9.70;88.70;;;;;;4991755;28;20468;-80
2021/04/02 11:38:29;;;;;;;1.50;1.13;;;9.80;89.00;;;;;;4992887;28;20499;-80
2021/04/02 11:40:57;;;;;;;1.50;1.10;;;9.90;88.50;;;;;;4987105;28;20572;-80
2021/04/02 11:43:24;;;;;;;1.50;1.10;;;10.00;88.80;;;;;;4998792;28;20970;-81
2021/04/02 11:46:01;;;;;;;4.33;3.43;;;10.00;88.50;;;;;;4980406;28;20508;-81
2021/04/02 11:48:41;;;;;;;1.50;1.00;;;10.00;87.90;;;;;;5006738;28;20488;-81
2021/04/02 11:51:13;;;;;;;1.50;1.20;;;10.00;88.00;;;;;;4996353;28;20488;-79
2021/04/02 11:53:40;;;;;;;1.50;1.20;;;9.90;88.30;;;;;;4992851;28;21093;-78
2021/04/02 11:59:08;;;;;;;1.50;1.00;;;9.70;88.40;;;;;;4990397;28;20509;-81
2021/04/02 12:01:35;;;;;;;1.50;1.10;;;9.60;89.20;;;;;;4986004;28;20488;-80
2021/04/02 12:04:31;;;;;;;1.50;1.10;;;9.70;89.00;;;;;;4990907;28;20636;-79
2021/04/02 12:10:16;;;;;;;1.50;1.03;;;9.50;88.90;;;;;;4934916;29;20550;-79
2021/04/02 12:12:46;;;;;;;1.50;1.00;;;9.40;88.90;;;;;;4963919;28;20492;-80
2021/04/02 12:15:19;;;;;;;1.50;1.10;;;9.30;88.70;;;;;;4988878;28;21260;-77
2021/04/02 12:17:46;;;;;;;1.50;1.10;;;9.20;88.80;;;;;;4983103;28;20527;-79
2021/04/02 12:20:17;;;;;;;1.50;1.10;;;9.20;88.90;;;;;;4996674;28;21282;-79
2021/04/02 12:22:44;;;;;;;4.57;3.83;;;9.10;89.30;;;;;;4986995;28;20476;-79
2021/04/02 12:25:15;;;;;;;1.50;1.10;;;9.10;88.90;;;;;;4991933;28;20567;-79
2021/04/02 12:27:46;;;;;;;1.50;1.00;;;9.10;88.90;;;;;;4984482;28;20488;-79
2021/04/02 12:30:19;;;;;;;1.50;1.10;;;9.10;88.80;;;;;;4990753;28;20539;-77
2021/04/02 12:32:48;;;;;;;2.47;2.20;;;9.10;88.80;;;;;;4980912;28;20487;-79
2021/04/02 12:35:22;;;;;;;1.50;1.20;;;9.10;88.20;;;;;;5005041;28;20457;-78
2021/04/02 12:37:49;;;;;;;1.60;1.20;;;9.10;88.20;;;;;;4990823;28;21278;-77
2021/04/02 12:40:18;;;;;;;1.50;1.10;;;9.10;88.10;;;;;;4993700;28;20639;-78
2021/04/02 12:42:46;;;;;;;1.50;1.10;;;9.00;88.40;;;;;;4986429;28;20491;-76
2021/04/02 12:45:54;;;;;;;1.50;1.10;;;9.00;88.40;;;;;;4993533;28;20563;-79
2021/04/02 12:51:50;;;;;;;;;;;;;;;;;;;;;
2021/04/02 12:54:44;;;;;;;1.53;1.23;;;9.10;88.60;;;;;;4993343;28;20598;-79
2021/04/02 12:57:29;;;;;;;1.50;1.10;;;9.00;88.60;;;;;;4877560;29;20493;-79
2021/04/02 13:00:01;;;;;;;1.50;1.10;;;9.10;88.40;;;;;;4896171;29;20466;-79
2021/04/02 13:02:36;;;;;;;1.50;1.10;;;9.20;88.40;;;;;;4981638;28;20836;-79
2021/04/02 13:05:08;;;;;;;1.50;1.00;;;9.30;87.90;;;;;;4995401;28;20925;-79
2021/04/02 13:07:35;;;;;;;1.50;1.10;;;9.30;87.70;;;;;;4975098;28;20489;-79
2021/04/02 13:10:01;;;;;;;1.50;1.10;;;9.40;87.70;;;;;;4990678;28;20528;-79
2021/04/02 13:12:29;;;;;;;1.50;1.10;;;9.50;87.40;;;;;;4983316;28;20487;-80
2021/04/02 13:14:57;;;;;;;1.50;1.10;;;9.60;86.40;;;;;;4992380;28;20476;-79
2021/04/02 13:17:45;;;;;;;1.50;1.30;;;9.50;85.70;;;;;;4981983;28;20484;-78
2021/04/02 13:20:26;;;;;;;1.50;1.10;;;9.60;86.20;;;;;;4995422;28;20489;-78
2021/04/02 13:23:05;;;;;;;1.50;1.00;;;9.60;84.00;;;;;;4985054;28;20487;-77
2021/04/02 13:25:35;;;;;;;1.70;1.47;;;9.60;83.20;;;;;;4990903;28;20476;-78
2021/04/02 13:28:03;;;;;;;1.50;1.10;;;9.80;83.60;;;;;;4989521;28;20531;-80
2021/04/02 13:30:34;;;;;;;1.50;1.00;;;9.90;83.10;;;;;;4997567;28;20522;-78
2021/04/02 13:33:02;;;;;;;1.60;1.40;;;10.10;82.20;;;;;;4980774;28;20576;-78
2021/04/02 13:35:35;;;;;;;1.50;1.10;;;10.20;81.80;;;;;;5047027;22;20500;-79
2021/04/02 13:38:02;;;;;;;2.47;2.17;;;10.30;80.70;;;;;;5000110;28;20484;-79
2021/04/02 13:40:34;;;;;;;1.50;1.00;;;10.30;81.00;;;;;;5007998;28;20463;-78
2021/04/02 13:43:13;;;;;;;1.50;1.10;;;10.50;80.70;;;;;;4998159;28;20479;-79
2021/04/02 13:45:49;;;;;;;1.50;1.00;;;10.50;80.10;;;;;;5013422;28;20472;-78
2021/04/02 13:48:16;;;;;;;1.50;1.00;;;10.40;80.00;;;;;;4978182;28;20542;-77
2021/04/02 13:50:49;;;;;;;1.50;1.10;;;10.40;80.00;;;;;;5003713;28;20526;-78
2021/04/02 13:53:39;;;;;;;1.50;1.00;;;10.40;80.50;;;;;;4990305;28;20645;-79
2021/04/02 13:56:07;;;;;;;1.50;1.00;;;10.50;80.00;;;;;;4987144;28;20485;-78
2021/04/02 13:58:36;;;;;;;1.50;1.00;;;10.50;80.10;;;;;;5006138;28;20464;-78
2021/04/02 14:01:12;;;;;;;1.50;1.00;;;10.50;80.20;;;;;;4991469;28;20962;-79
2021/04/02 14:03:38;;;;;;;1.50;1.00;;;10.50;80.00;;;;;;5011730;28;20487;-78
2021/04/02 14:06:08;;;;;;;1.50;1.10;;;10.50;79.70;;;;;;4992376;28;20468;-76
2021/04/02 14:08:38;;;;;;;1.50;1.10;;;10.40;79.70;;;;;;5005910;28;20465;-77
2021/04/02 14:11:07;;;;;;;1.50;1.07;;;10.40;80.10;;;;;;4997906;28;20472;-77
2021/04/02 14:13:36;;;;;;;1.50;1.00;;;10.40;79.70;;;;;;5008578;28;20528;-80
2021/04/02 14:16:08;;;;;;;1.50;1.10;;;10.40;79.80;;;;;;5005877;28;20467;-79
2021/04/02 14:18:35;;;;;;;1.50;1.10;;;10.50;80.20;;;;;;5017368;28;20824;-79
2021/04/02 14:21:13;;;;;;;1.50;1.03;;;10.70;79.80;;;;;;5002738;28;20530;-79
2021/04/02 14:23:48;;;;;;;1.50;1.10;;;10.90;78.60;;;;;;5012501;28;21149;-79
2021/04/02 14:26:19;;;;;;;1.50;1.00;;;10.80;78.90;;;;;;5003756;28;20989;-77
2021/04/02 14:28:51;;;;;;;1.90;1.77;;;11.00;78.50;;;;;;5006017;28;20463;-79
2021/04/02 14:31:21;;;;;;;1.50;1.10;;;11.00;77.90;;;;;;5005658;28;20511;-79
2021/04/02 14:33:53;;;;;;;1.50;1.00;;;11.00;77.70;;;;;;5014833;28;20912;-79
2021/04/02 14:36:25;;;;;;;1.50;1.10;;;10.90;77.50;;;;;;4997860;28;20477;-79
2021/04/02 14:39:02;;;;;;;1.50;1.00;;;10.90;78.20;;;;;;5003792;28;20506;-78
2021/04/02 14:41:38;;;;;;;1.50;1.00;;;10.70;78.40;;;;;;4996979;28;21060;-77
2021/04/02 14:44:05;;;;;;;1.57;1.30;;;10.70;78.50;;;;;;5005474;28;20488;-77
2021/04/02 14:46:41;;;;;;;1.50;1.00;;;10.70;79.50;;;;;;4999735;28;20538;-78
2021/04/02 14:49:17;;;;;;;1.50;1.00;;;10.90;78.80;;;;;;5004549;28;20471;-78
2021/04/02 14:51:43;;;;;;;2.53;1.43;;;11.20;77.40;;;;;;4999378;28;20560;-78
2021/04/02 14:54:33;;;;;;;1.50;1.00;;;11.30;76.80;;;;;;5007258;28;20456;-79
2021/04/02 14:57:02;;;;;;;1.60;1.10;;;11.50;75.60;;;;;;4996081;28;21076;-79
2021/04/02 14:59:56;;;;;;;1.50;1.00;;;11.70;77.20;;;;;;5002272;28;20473;-77
2021/04/02 15:02:31;;;;;;;1.50;1.00;;;11.90;74.80;;;;;;4989303;28;20502;-78
2021/04/02 15:05:01;;;;;;;1.50;1.00;;;11.90;74.80;;;;;;5004561;28;20468;-79
2021/04/02 15:07:28;;;;;;;1.50;1.00;;;11.80;74.30;;;;;;4991825;28;20592;-78
2021/04/02 15:09:55;;;;;;;1.50;1.00;;;11.70;74.40;;;;;;5000376;28;20509;-77
2021/04/02 15:12:22;;;;;;;1.77;1.50;;;11.60;75.10;;;;;;4990830;28;20630;-76
2021/04/02 15:14:50;;;;;;;1.50;1.00;;;11.50;75.30;;;;;;5003591;28;20464;-77
2021/04/02 15:17:19;;;;;;;1.50;1.00;;;11.40;75.20;;;;;;4984781;28;21113;-77
2021/04/02 15:19:47;;;;;;;1.50;1.00;;;11.30;75.60;;;;;;5001294;28;20479;-75
2021/04/02 15:22:16;;;;;;;1.50;1.00;;;11.20;75.80;;;;;;4996906;28;20500;-78
2021/04/02 15:24:43;;;;;;;1.60;1.30;;;11.00;76.10;;;;;;5012917;28;20919;-77
2021/04/02 15:27:15;;;;;;;1.50;1.10;;;10.90;77.10;;;;;;5001863;28;20522;-77
2021/04/02 15:29:45;;;;;;;1.50;1.00;;;10.80;77.80;;;;;;5016127;28;20464;-79
2021/04/02 15:32:12;;;;;;;1.50;1.00;;;10.70;77.80;;;;;;5006081;28;20515;-78
2021/04/02 15:34:38;;;;;;;1.50;1.10;;;10.50;77.90;;;;;;5014790;28;20475;-79